Time;durP1;ratioP1;P1;durP2;ratioP2;P2;SDS_P1;SDS_P2;PMS_P1;PMS_P2;Temp;Humidity;BMP_temperature;BMP_pressure;BME280_temperature;BME280_humidity;BME280_pressure;Samples;Min_cycle;Max_cycle;Signal;HPM_P1;HPM_P2
2021/12/30 00:02:42;;;;;;;56.33;32.17;;;22.10;42.00;;;;;;6160680;28;82913;-74
2021/12/30 00:05:42;;;;;;;59.38;34.97;;;22.10;42.50;;;;;;6166375;28;83377;-77
2021/12/30 00:08:43;;;;;;;59.90;34.17;;;22.10;42.40;;;;;;6161230;28;90328;-75
2021/12/30 00:11:43;;;;;;;58.60;33.38;;;22.10;42.90;;;;;;6157952;28;83004;-78
2021/12/30 00:14:44;;;;;;;60.85;34.22;;;22.10;42.60;;;;;;6162031;28;82992;-74
2021/12/30 00:17:44;;;;;;;59.83;32.55;;;22.10;42.20;;;;;;6175053;28;83259;-74
2021/12/30 00:20:45;;;;;;;60.28;34.10;;;22.10;42.10;;;;;;6168353;28;83115;-75
2021/12/30 00:23:45;;;;;;;54.92;32.33;;;22.10;42.10;;;;;;6161167;27;84770;-76
2021/12/30 00:26:46;;;;;;;52.83;31.65;;;22.10;42.30;;;;;;6167899;28;83164;-76
2021/12/30 00:29:46;;;;;;;58.38;32.00;;;22.10;42.20;;;;;;6166695;28;84742;-76
2021/12/30 00:32:47;;;;;;;55.03;32.40;;;22.10;42.40;;;;;;6158602;28;83216;-76
2021/12/30 00:35:47;;;;;;;54.28;32.75;;;22.10;42.50;;;;;;6158739;28;83631;-76
2021/12/30 00:38:48;;;;;;;62.05;34.08;;;22.10;42.60;;;;;;6157241;28;83882;-77
2021/12/30 00:41:48;;;;;;;56.47;31.83;;;22.10;42.50;;;;;;6164538;27;83262;-77
2021/12/30 00:44:49;;;;;;;60.47;33.63;;;22.10;42.70;;;;;;6165760;28;83013;-77
2021/12/30 00:47:49;;;;;;;59.95;34.90;;;22.10;42.40;;;;;;6161837;28;83472;-77
2021/12/30 00:50:50;;;;;;;58.92;33.60;;;22.10;42.40;;;;;;6162378;27;83565;-77
2021/12/30 00:53:50;;;;;;;51.75;31.23;;;22.00;42.40;;;;;;6164965;28;82868;-77
2021/12/30 00:56:51;;;;;;;55.03;31.77;;;22.00;42.40;;;;;;6162746;28;83013;-77
2021/12/30 00:59:51;;;;;;;56.08;32.78;;;22.00;42.70;;;;;;6156845;28;84179;-76
2021/12/30 01:02:52;;;;;;;58.42;33.28;;;22.00;42.50;;;;;;6156210;28;84234;-77
2021/12/30 01:05:52;;;;;;;58.03;32.85;;;22.00;42.70;;;;;;6156594;28;83139;-77
2021/12/30 01:08:53;;;;;;;60.65;33.38;;;22.00;42.70;;;;;;6159554;28;84543;-76
2021/12/30 01:11:55;;;;;;;57.38;33.28;;;22.00;42.70;;;;;;6159708;28;83175;-75
2021/12/30 01:14:56;;;;;;;60.40;34.05;;;22.00;42.50;;;;;;6155998;28;84794;-74
2021/12/30 01:18:20;;;;;;;56.70;32.75;;;22.00;42.60;;;;;;6169184;27;82993;-77
2021/12/30 01:21:17;;;;;;;60.22;34.33;;;22.00;42.70;;;;;;6174507;27;83094;-75
2021/12/30 01:24:17;;;;;;;60.88;34.30;;;22.00;42.70;;;;;;6170488;27;83859;-75
2021/12/30 01:27:18;;;;;;;60.45;34.40;;;22.00;42.50;;;;;;6173965;28;86040;-74
2021/12/30 01:30:18;;;;;;;63.35;34.45;;;22.00;43.00;;;;;;6162442;28;83774;-74
2021/12/30 01:33:19;;;;;;;57.70;33.20;;;22.00;42.70;;;;;;6173044;28;83610;-75
2021/12/30 01:36:21;;;;;;;58.05;33.88;;;22.00;42.70;;;;;;6155252;28;83713;-76
2021/12/30 01:39:22;;;;;;;61.90;33.88;;;22.00;43.00;;;;;;6155152;28;83946;-76
2021/12/30 01:42:23;;;;;;;63.33;35.90;;;22.00;42.80;;;;;;6173022;28;83122;-75
2021/12/30 01:45:23;;;;;;;59.78;33.60;;;22.00;43.00;;;;;;6154960;28;84157;-74
2021/12/30 01:48:24;;;;;;;56.30;32.47;;;22.00;42.90;;;;;;6167896;27;83545;-74
2021/12/30 01:51:24;;;;;;;59.83;34.13;;;22.00;42.80;;;;;;6155472;28;82793;-75
2021/12/30 01:54:25;;;;;;;56.25;33.15;;;21.90;42.80;;;;;;6160757;28;83050;-77
2021/12/30 01:57:25;;;;;;;55.47;33.53;;;22.00;43.00;;;;;;6157490;28;83521;-77
2021/12/30 02:00:26;;;;;;;63.22;33.95;;;22.00;43.10;;;;;;6173169;28;82905;-76
2021/12/30 02:03:26;;;;;;;58.13;33.65;;;21.90;43.10;;;;;;6172846;27;83423;-76
2021/12/30 02:06:27;;;;;;;58.75;33.17;;;21.90;43.00;;;;;;6155536;28;83458;-77
2021/12/30 02:09:29;;;;;;;54.25;32.22;;;22.00;43.10;;;;;;6168972;27;83031;-77
2021/12/30 02:12:30;;;;;;;55.00;31.88;;;21.90;43.30;;;;;;6156228;28;83726;-76
2021/12/30 02:15:30;;;;;;;60.10;33.60;;;21.90;42.80;;;;;;6161329;28;83203;-76
2021/12/30 02:18:31;;;;;;;54.05;32.05;;;21.90;42.60;;;;;;6156229;28;84338;-76
2021/12/30 02:21:31;;;;;;;61.60;34.05;;;22.00;42.70;;;;;;6173510;28;82848;-76
2021/12/30 02:24:34;;;;;;;63.90;34.38;;;21.90;42.70;;;;;;6155490;28;83774;-77
2021/12/30 02:27:34;;;;;;;56.92;34.67;;;21.90;42.60;;;;;;6172897;27;83341;-75
2021/12/30 02:30:35;;;;;;;56.35;33.08;;;21.90;42.70;;;;;;6147538;28;84025;-75
2021/12/30 02:33:36;;;;;;;56.53;33.67;;;21.90;42.60;;;;;;6146312;28;84239;-75
2021/12/30 02:36:36;;;;;;;59.45;34.13;;;21.90;42.60;;;;;;6159214;28;83256;-74
2021/12/30 02:39:37;;;;;;;55.53;32.50;;;21.90;42.80;;;;;;6154782;28;83443;-74
2021/12/30 02:42:37;;;;;;;59.08;33.30;;;21.90;42.50;;;;;;6162234;28;84995;-74
2021/12/30 02:45:39;;;;;;;59.95;34.35;;;21.90;42.50;;;;;;6156425;28;82977;-76
2021/12/30 02:48:41;;;;;;;59.67;33.47;;;21.90;42.10;;;;;;6157880;28;82953;-76
2021/12/30 02:51:41;;;;;;;57.65;33.72;;;21.90;42.70;;;;;;6160629;28;83083;-75
2021/12/30 02:54:42;;;;;;;57.33;33.22;;;21.90;43.20;;;;;;6158671;28;83418;-75
2021/12/30 02:57:42;;;;;;;59.95;33.75;;;21.90;43.00;;;;;;6163759;28;83051;-76
2021/12/30 03:00:43;;;;;;;57.65;34.10;;;21.90;42.90;;;;;;6164812;28;84002;-76
2021/12/30 03:03:43;;;;;;;59.70;36.75;;;21.90;43.00;;;;;;6164684;28;82989;-75
2021/12/30 03:06:44;;;;;;;58.60;34.50;;;21.90;42.80;;;;;;6175730;28;84156;-76
2021/12/30 03:09:44;;;;;;;58.70;34.90;;;21.80;43.10;;;;;;6171599;27;82988;-77
2021/12/30 03:12:45;;;;;;;58.40;34.13;;;21.90;43.60;;;;;;6164914;28;83140;-76
2021/12/30 03:15:46;;;;;;;65.38;36.63;;;21.90;42.30;;;;;;6161680;28;83190;-76
2021/12/30 03:18:47;;;;;;;58.78;36.10;;;21.90;41.60;;;;;;6158606;28;83183;-76
2021/12/30 03:21:47;;;;;;;64.18;36.75;;;21.90;41.80;;;;;;6159290;27;83239;-76
2021/12/30 03:24:48;;;;;;;62.08;36.15;;;21.90;41.30;;;;;;6158366;28;89715;-76
2021/12/30 03:27:48;;;;;;;66.13;37.90;;;22.00;41.40;;;;;;6157553;28;83023;-75
2021/12/30 03:30:49;;;;;;;62.05;37.05;;;22.00;41.50;;;;;;6165094;28;84253;-76
2021/12/30 03:33:50;;;;;;;65.60;37.50;;;22.10;41.60;;;;;;6166242;28;82922;-76
2021/12/30 03:36:50;;;;;;;60.92;34.90;;;22.10;41.50;;;;;;6166658;28;83756;-75
2021/12/30 03:39:51;;;;;;;66.35;36.90;;;22.20;41.50;;;;;;6160808;28;83081;-76
2021/12/30 03:42:51;;;;;;;61.00;36.08;;;22.20;41.50;;;;;;6158708;28;83604;-76
2021/12/30 03:45:52;;;;;;;65.97;37.38;;;22.30;41.50;;;;;;6158936;28;84036;-74
2021/12/30 03:48:52;;;;;;;66.82;36.45;;;22.30;41.40;;;;;;6159777;28;84291;-75
2021/12/30 03:51:54;;;;;;;62.70;35.10;;;22.30;41.40;;;;;;6169172;28;83591;-75
2021/12/30 03:54:55;;;;;;;59.88;34.08;;;22.40;41.50;;;;;;6166990;28;83419;-76
2021/12/30 03:57:55;;;;;;;59.72;35.20;;;22.40;41.30;;;;;;6153709;28;83313;-76
2021/12/30 04:00:56;;;;;;;65.28;36.47;;;22.40;41.00;;;;;;6164684;28;83174;-74
2021/12/30 04:03:56;;;;;;;54.70;33.08;;;22.50;41.00;;;;;;6164290;28;83495;-74
2021/12/30 04:06:57;;;;;;;60.33;36.25;;;22.50;41.10;;;;;;6158632;28;83228;-76
2021/12/30 04:09:57;;;;;;;63.45;34.40;;;22.50;40.90;;;;;;6157688;28;83104;-74
2021/12/30 04:12:58;;;;;;;57.53;34.97;;;22.50;41.00;;;;;;6170934;28;83863;-73
2021/12/30 04:15:58;;;;;;;64.38;35.47;;;22.60;41.00;;;;;;6158402;28;83393;-73
2021/12/30 04:18:59;;;;;;;61.60;34.58;;;22.60;41.00;;;;;;6167608;28;83323;-73
2021/12/30 04:21:59;;;;;;;62.38;36.60;;;22.60;40.90;;;;;;6165469;28;82971;-72
2021/12/30 04:25:00;;;;;;;58.78;34.50;;;22.60;40.80;;;;;;6160544;27;83149;-72
2021/12/30 04:28:00;;;;;;;67.25;37.90;;;22.60;40.80;;;;;;6161240;28;84019;-72
2021/12/30 04:31:01;;;;;;;65.30;38.50;;;22.60;40.70;;;;;;6167948;28;83475;-72
2021/12/30 04:34:01;;;;;;;60.70;35.78;;;22.60;40.60;;;;;;6156403;28;85358;-75
2021/12/30 04:37:02;;;;;;;65.55;38.80;;;22.60;40.50;;;;;;6159280;28;85644;-72
2021/12/30 04:40:04;;;;;;;61.17;37.53;;;22.70;40.40;;;;;;6161854;28;85957;-77
2021/12/30 04:43:05;;;;;;;63.10;39.20;;;22.70;40.20;;;;;;6163693;27;83121;-77
2021/12/30 04:46:05;;;;;;;66.20;37.20;;;22.70;40.10;;;;;;6174331;27;83566;-73
2021/12/30 04:49:06;;;;;;;61.97;35.60;;;22.70;40.40;;;;;;6144256;28;86198;-72
2021/12/30 04:52:06;;;;;;;65.32;38.10;;;22.70;40.40;;;;;;6155833;28;83713;-69
2021/12/30 04:55:07;;;;;;;71.53;39.45;;;22.70;40.40;;;;;;6156360;28;83240;-68
2021/12/30 04:58:07;;;;;;;68.55;38.95;;;22.70;40.50;;;;;;6172509;28;83680;-69
2021/12/30 05:01:08;;;;;;;66.00;37.72;;;22.70;40.30;;;;;;6157334;28;83354;-68
2021/12/30 05:04:08;;;;;;;62.70;36.17;;;22.70;40.50;;;;;;6157376;28;83562;-70
2021/12/30 05:07:09;;;;;;;67.28;38.03;;;22.70;41.40;;;;;;6155586;28;84415;-78
2021/12/30 05:10:09;;;;;;;62.45;35.65;;;22.70;41.30;;;;;;6161054;28;82859;-77
2021/12/30 05:13:10;;;;;;;61.15;35.85;;;22.70;40.70;;;;;;6172023;27;83099;-71
2021/12/30 05:16:10;;;;;;;63.17;36.17;;;22.70;40.90;;;;;;6155395;28;84338;-71
2021/12/30 05:19:11;;;;;;;61.70;36.03;;;22.70;41.20;;;;;;6157681;28;82899;-70
2021/12/30 05:22:11;;;;;;;63.15;35.20;;;22.70;41.50;;;;;;6155706;28;83571;-71
2021/12/30 05:25:12;;;;;;;62.97;34.85;;;22.70;41.60;;;;;;6149622;28;82770;-73
2021/12/30 05:28:12;;;;;;;60.67;36.20;;;22.80;41.60;;;;;;6155726;28;84028;-74
2021/12/30 05:31:13;;;;;;;63.95;36.92;;;22.80;41.30;;;;;;6152014;28;83543;-70
2021/12/30 05:34:13;;;;;;;60.22;37.20;;;22.80;41.40;;;;;;6154229;28;84413;-71
2021/12/30 05:37:14;;;;;;;65.03;35.40;;;22.80;41.30;;;;;;6155544;28;83523;-69
2021/12/30 05:40:14;;;;;;;51.97;29.67;;;22.80;42.20;;;;;;6155713;28;84466;-72
2021/12/30 05:43:15;;;;;;;44.30;27.70;;;22.80;43.50;;;;;;6155663;28;83344;-72
2021/12/30 05:46:15;;;;;;;43.60;25.08;;;22.80;44.50;;;;;;6156830;28;83008;-73
2021/12/30 05:49:16;;;;;;;41.67;24.52;;;22.80;45.30;;;;;;6154792;28;83451;-71
2021/12/30 05:52:16;;;;;;;38.78;20.95;;;22.70;46.50;;;;;;6156528;28;83342;-74
2021/12/30 05:55:17;;;;;;;38.25;22.05;;;22.70;46.50;;;;;;6155239;28;83313;-72
2021/12/30 05:58:18;;;;;;;33.58;20.42;;;22.70;46.80;;;;;;6154651;28;84100;-73
2021/12/30 06:01:18;;;;;;;37.22;20.98;;;22.70;47.40;;;;;;6155038;28;83058;-71
2021/12/30 06:04:19;;;;;;;37.28;20.90;;;22.70;47.60;;;;;;6156235;28;83354;-75
2021/12/30 06:07:19;;;;;;;29.85;18.85;;;22.70;47.60;;;;;;6156825;28;83058;-74
2021/12/30 06:10:20;;;;;;;29.92;17.83;;;22.70;47.90;;;;;;6156922;28;84197;-74
2021/12/30 06:13:20;;;;;;;29.27;17.40;;;22.70;47.60;;;;;;6155239;28;83627;-74
2021/12/30 06:16:21;;;;;;;27.80;16.10;;;22.70;48.10;;;;;;6153686;28;84205;-73
2021/12/30 06:19:21;;;;;;;27.40;15.13;;;22.50;48.50;;;;;;6144354;28;83716;-73
2021/12/30 06:22:22;;;;;;;23.02;14.30;;;22.40;49.50;;;;;;6154554;28;83107;-73
2021/12/30 06:25:22;;;;;;;23.60;13.95;;;22.40;49.60;;;;;;6157497;28;83162;-72
2021/12/30 06:28:23;;;;;;;21.52;13.07;;;22.40;49.70;;;;;;6158757;28;83410;-75
2021/12/30 06:31:23;;;;;;;21.92;12.50;;;22.40;49.90;;;;;;6159501;28;83794;-74
2021/12/30 06:34:24;;;;;;;23.25;14.27;;;22.30;50.30;;;;;;6159710;28;83177;-75
2021/12/30 06:37:24;;;;;;;25.05;14.85;;;22.30;50.80;;;;;;6156246;28;84767;-69
2021/12/30 06:40:25;;;;;;;27.58;15.25;;;22.30;50.90;;;;;;6160574;28;84202;-76
2021/12/30 06:43:25;;;;;;;29.45;16.42;;;22.40;50.90;;;;;;6154699;28;82991;-74
2021/12/30 06:46:26;;;;;;;35.03;19.52;;;22.50;51.30;;;;;;6154718;28;83013;-68
2021/12/30 06:49:26;;;;;;;32.22;18.02;;;22.40;50.40;;;;;;6158203;28;83479;-68
2021/12/30 06:52:27;;;;;;;29.00;18.42;;;22.40;50.20;;;;;;6160800;28;82936;-72
2021/12/30 06:55:27;;;;;;;29.77;17.88;;;22.50;50.60;;;;;;6157554;28;84565;-74
2021/12/30 06:58:28;;;;;;;31.08;18.30;;;22.50;50.90;;;;;;6157077;28;84803;-69
2021/12/30 07:01:28;;;;;;;30.63;17.60;;;22.50;50.60;;;;;;6156571;28;86042;-75
2021/12/30 07:04:29;;;;;;;34.40;19.67;;;22.50;50.60;;;;;;6150970;28;84188;-75
2021/12/30 07:07:29;;;;;;;31.13;18.70;;;22.50;50.30;;;;;;6151268;28;83588;-68
2021/12/30 07:10:30;;;;;;;33.13;19.48;;;22.50;50.60;;;;;;6158675;28;83741;-75
2021/12/30 07:13:30;;;;;;;32.17;18.70;;;22.50;51.50;;;;;;6157748;28;84146;-77
2021/12/30 07:16:31;;;;;;;43.10;21.67;;;22.50;50.70;;;;;;6160286;28;83640;-77
2021/12/30 07:19:31;;;;;;;34.42;21.00;;;22.50;50.60;;;;;;6154057;28;84348;-76
2021/12/30 07:22:32;;;;;;;35.15;20.63;;;22.50;50.40;;;;;;6157898;28;83435;-77
2021/12/30 07:25:32;;;;;;;33.10;19.08;;;22.50;50.20;;;;;;6156699;28;84705;-77
2021/12/30 07:28:33;;;;;;;34.90;21.45;;;22.40;50.70;;;;;;6157961;28;83090;-76
2021/12/30 07:31:33;;;;;;;33.05;20.73;;;22.40;49.90;;;;;;6157767;28;83108;-75
2021/12/30 07:34:35;;;;;;;36.70;21.23;;;22.40;49.90;;;;;;6157365;28;86036;-75
2021/12/30 07:37:35;;;;;;;38.28;21.23;;;22.40;50.00;;;;;;6159959;28;83142;-76
2021/12/30 07:40:36;;;;;;;40.47;22.77;;;22.30;50.20;;;;;;6158113;28;83036;-67
2021/12/30 07:43:36;;;;;;;36.80;20.67;;;22.30;50.10;;;;;;6158632;28;84085;-77
2021/12/30 07:46:37;;;;;;;39.03;21.85;;;22.30;50.40;;;;;;6157394;28;84071;-78
2021/12/30 07:49:37;;;;;;;37.15;21.92;;;22.30;50.60;;;;;;6157615;28;83200;-78
2021/12/30 07:52:38;;;;;;;43.15;24.27;;;22.30;51.50;;;;;;6158576;28;85374;-74
2021/12/30 07:55:38;;;;;;;36.70;22.45;;;22.30;51.10;;;;;;6155526;28;83511;-71
2021/12/30 07:58:39;;;;;;;35.92;21.55;;;22.20;51.20;;;;;;6159324;28;86596;-74
2021/12/30 08:01:39;;;;;;;38.80;23.02;;;22.20;51.30;;;;;;6159198;28;84343;-73
2021/12/30 08:04:40;;;;;;;41.05;23.75;;;22.10;51.20;;;;;;6162002;28;83793;-74
2021/12/30 08:07:41;;;;;;;193.32;97.32;;;22.10;52.10;;;;;;6158291;28;84926;-74
2021/12/30 08:10:42;;;;;;;276.83;137.75;;;22.00;52.10;;;;;;6161682;28;82937;-73
2021/12/30 08:13:46;;;;;;;164.68;86.40;;;22.00;53.00;;;;;;6157556;28;85943;-74
2021/12/30 08:16:46;;;;;;;150.00;74.93;;;22.00;52.80;;;;;;6164069;28;84199;-76
2021/12/30 08:19:47;;;;;;;118.18;61.15;;;22.00;52.60;;;;;;6167814;28;83184;-75
2021/12/30 08:22:48;;;;;;;95.38;49.83;;;22.00;52.40;;;;;;6161628;28;88744;-76
2021/12/30 08:25:51;;;;;;;83.95;43.33;;;22.00;52.10;;;;;;6159013;28;82822;-69
2021/12/30 08:28:51;;;;;;;68.20;36.55;;;22.10;52.10;;;;;;6157965;28;83142;-75
2021/12/30 08:31:52;;;;;;;77.28;38.90;;;22.10;52.60;;;;;;6161465;28;84640;-76
2021/12/30 08:34:52;;;;;;;63.92;34.50;;;22.20;52.00;;;;;;6161307;28;83049;-76
2021/12/30 08:37:54;;;;;;;160.48;78.63;;;22.10;52.30;;;;;;6178830;28;83317;-75
2021/12/30 08:40:54;;;;;;;255.88;124.47;;;22.10;52.40;;;;;;6160667;28;82730;-75
2021/12/30 08:43:55;;;;;;;302.83;150.60;;;22.10;52.60;;;;;;6163267;28;85441;-75
2021/12/30 08:46:55;;;;;;;318.83;154.02;;;22.10;52.60;;;;;;6162959;28;85678;-72
2021/12/30 08:49:56;;;;;;;261.55;129.00;;;22.20;53.10;;;;;;6162485;28;85430;-74
2021/12/30 08:52:56;;;;;;;200.43;100.45;;;22.20;53.20;;;;;;6155504;28;85895;-74
2021/12/30 08:55:57;;;;;;;172.55;86.60;;;22.30;53.30;;;;;;6160468;28;85469;-74
2021/12/30 08:58:57;;;;;;;146.77;72.57;;;22.30;53.00;;;;;;6162337;28;84619;-76
2021/12/30 09:01:58;;;;;;;122.85;62.13;;;22.40;52.90;;;;;;6165118;28;83987;-77
2021/12/30 09:04:58;;;;;;;112.03;55.72;;;22.50;52.80;;;;;;6158458;28;84272;-71
2021/12/30 09:07:59;;;;;;;102.78;51.95;;;22.50;52.80;;;;;;6154623;28;83445;-70
2021/12/30 09:10:59;;;;;;;83.00;43.05;;;22.60;52.60;;;;;;6160821;28;83179;-76
2021/12/30 09:14:00;;;;;;;82.30;42.47;;;22.70;52.60;;;;;;6154136;28;84655;-75
2021/12/30 09:17:00;;;;;;;69.20;36.95;;;22.60;52.50;;;;;;6158576;28;83105;-74
2021/12/30 09:20:01;;;;;;;64.38;34.22;;;22.60;52.50;;;;;;6156753;28;83811;-75
2021/12/30 09:23:03;;;;;;;60.75;32.92;;;22.60;52.50;;;;;;6156443;28;82862;-75
2021/12/30 09:26:03;;;;;;;54.55;30.10;;;22.70;52.60;;;;;;6156098;28;82997;-75
2021/12/30 09:29:10;;;;;;;57.17;32.10;;;22.70;53.10;;;;;;6155377;28;84088;-78
2021/12/30 09:32:10;;;;;;;55.40;29.23;;;22.70;52.50;;;;;;6154054;28;87509;-75
2021/12/30 09:35:11;;;;;;;52.60;29.63;;;22.70;52.50;;;;;;6149932;28;84004;-70
2021/12/30 09:38:11;;;;;;;50.55;27.80;;;22.70;52.70;;;;;;6154836;28;83853;-75
2021/12/30 09:41:12;;;;;;;50.53;26.63;;;22.70;53.50;;;;;;6151440;28;83427;-78
2021/12/30 09:44:12;;;;;;;46.45;25.30;;;22.80;52.60;;;;;;6155055;28;84332;-77
2021/12/30 09:47:13;;;;;;;43.17;25.25;;;22.70;52.50;;;;;;6157022;28;84374;-75
2021/12/30 09:50:13;;;;;;;40.90;24.02;;;22.80;52.40;;;;;;6155460;28;83548;-77
2021/12/30 09:53:14;;;;;;;42.45;23.92;;;22.70;52.60;;;;;;6155398;28;83152;-76
2021/12/30 09:56:15;;;;;;;38.05;22.75;;;22.70;52.70;;;;;;6155906;28;83116;-74
2021/12/30 09:59:16;;;;;;;39.13;22.23;;;22.70;52.60;;;;;;6155545;28;83360;-71
2021/12/30 10:02:16;;;;;;;32.95;21.05;;;22.70;52.60;;;;;;6155144;28;83245;-75
2021/12/30 10:05:17;;;;;;;30.80;19.63;;;22.70;52.70;;;;;;6151993;28;84330;-74
2021/12/30 10:08:17;;;;;;;32.58;19.08;;;22.70;53.00;;;;;;6155047;28;83196;-75
2021/12/30 10:11:18;;;;;;;32.35;18.88;;;22.70;53.00;;;;;;6150547;28;84146;-72
2021/12/30 10:14:18;;;;;;;32.35;18.75;;;22.70;53.10;;;;;;6152249;28;84584;-71
2021/12/30 10:17:19;;;;;;;30.75;19.05;;;22.70;53.10;;;;;;6151147;28;84102;-75
2021/12/30 10:20:21;;;;;;;34.15;19.70;;;22.70;53.10;;;;;;6156195;28;83136;-76
2021/12/30 10:23:22;;;;;;;28.25;17.55;;;22.70;53.20;;;;;;6154340;28;84618;-76
2021/12/30 10:26:22;;;;;;;29.98;18.38;;;22.70;53.20;;;;;;6147359;28;83432;-73
2021/12/30 10:29:23;;;;;;;31.45;18.38;;;22.70;52.90;;;;;;6163615;28;83017;-70
2021/12/30 10:32:23;;;;;;;32.13;18.50;;;22.60;53.50;;;;;;6151828;28;82892;-71
2021/12/30 10:35:24;;;;;;;36.63;18.88;;;22.60;53.80;;;;;;6153868;28;84240;-71
2021/12/30 10:38:24;;;;;;;31.45;19.60;;;22.60;54.00;;;;;;6153496;28;84286;-70
2021/12/30 10:41:25;;;;;;;33.78;17.92;;;22.60;53.90;;;;;;6154068;28;83372;-73
2021/12/30 10:44:25;;;;;;;30.83;18.25;;;22.60;54.90;;;;;;6154077;28;83754;-74
2021/12/30 10:47:26;;;;;;;31.90;16.80;;;22.60;55.00;;;;;;6154780;28;84096;-77
2021/12/30 10:50:27;;;;;;;26.13;16.85;;;22.50;54.50;;;;;;6155947;28;83411;-75
2021/12/30 10:53:28;;;;;;;44.05;16.25;;;22.60;54.60;;;;;;6135510;28;84781;-75
2021/12/30 10:56:29;;;;;;;26.60;15.50;;;22.50;54.60;;;;;;6154795;28;83449;-75
2021/12/30 10:59:29;;;;;;;27.55;15.80;;;22.50;55.20;;;;;;6149516;28;83310;-75
2021/12/30 11:02:30;;;;;;;24.17;16.67;;;22.50;56.00;;;;;;6153249;28;83443;-76
2021/12/30 11:05:30;;;;;;;24.58;15.85;;;22.50;56.50;;;;;;6153058;28;84569;-72
2021/12/30 11:08:31;;;;;;;25.60;15.90;;;22.60;57.50;;;;;;6152838;28;84078;-78
2021/12/30 11:11:31;;;;;;;27.55;15.70;;;22.50;57.50;;;;;;6157942;28;84441;-73
2021/12/30 11:14:32;;;;;;;211.85;58.58;;;22.50;57.60;;;;;;6158359;28;83942;-78
2021/12/30 11:17:36;;;;;;;270.83;76.40;;;22.50;57.90;;;;;;6157565;28;84970;-69
2021/12/30 11:20:37;;;;;;;225.63;67.60;;;22.50;58.00;;;;;;6158381;28;82929;-80
2021/12/30 11:23:37;;;;;;;181.27;59.13;;;22.50;57.90;;;;;;6157101;28;84730;-78
2021/12/30 11:26:38;;;;;;;185.40;60.13;;;22.50;58.80;;;;;;6158145;28;84631;-77
2021/12/30 11:29:38;;;;;;;157.73;53.78;;;22.50;59.30;;;;;;6157234;28;83904;-75
2021/12/30 11:32:39;;;;;;;156.55;52.25;;;22.50;58.60;;;;;;6158692;28;83076;-76
2021/12/30 11:35:40;;;;;;;145.93;52.13;;;22.50;58.90;;;;;;6162620;28;84217;-78
2021/12/30 11:38:40;;;;;;;130.27;46.30;;;22.50;59.00;;;;;;6156785;28;83654;-75
2021/12/30 11:41:41;;;;;;;112.47;41.33;;;22.50;58.50;;;;;;6155956;28;83076;-76
2021/12/30 11:44:41;;;;;;;99.90;35.97;;;22.40;58.00;;;;;;6158608;28;83685;-77
2021/12/30 11:47:42;;;;;;;108.32;38.00;;;22.40;57.20;;;;;;6157121;28;83231;-79
2021/12/30 11:50:42;;;;;;;96.25;34.60;;;22.40;56.30;;;;;;6156556;28;83357;-73
2021/12/30 11:53:43;;;;;;;80.68;32.72;;;22.40;56.10;;;;;;6156957;28;83548;-78
2021/12/30 11:56:44;;;;;;;79.43;31.55;;;22.40;55.70;;;;;;6159240;28;83462;-78
2021/12/30 11:59:44;;;;;;;81.00;31.95;;;22.40;55.50;;;;;;6157236;28;83410;-78
2021/12/30 12:02:45;;;;;;;77.18;29.08;;;22.40;54.80;;;;;;6139645;28;83472;-78
2021/12/30 12:05:45;;;;;;;74.05;30.40;;;22.30;54.50;;;;;;6158276;28;83072;-73
2021/12/30 12:08:46;;;;;;;75.07;28.63;;;22.30;54.30;;;;;;6157004;28;83333;-77
2021/12/30 12:11:46;;;;;;;77.05;34.92;;;22.30;53.90;;;;;;6155830;28;84364;-71
2021/12/30 12:14:47;;;;;;;79.15;40.97;;;22.30;51.40;;;;;;6149471;28;83074;-75
2021/12/30 12:17:47;;;;;;;83.93;39.90;;;22.30;49.20;;;;;;6153427;28;83502;-73
2021/12/30 12:20:48;;;;;;;78.30;34.45;;;22.20;50.10;;;;;;6163914;28;84696;-71
2021/12/30 12:23:48;;;;;;;63.92;30.17;;;22.30;49.70;;;;;;6155847;28;85503;-71
2021/12/30 12:26:49;;;;;;;54.70;28.00;;;22.30;50.30;;;;;;6154233;28;84458;-71
2021/12/30 12:29:50;;;;;;;54.92;24.67;;;22.30;50.40;;;;;;6155387;28;83023;-73
2021/12/30 12:32:51;;;;;;;47.65;24.20;;;22.20;50.10;;;;;;6155019;28;85159;-71
2021/12/30 12:35:51;;;;;;;46.55;22.90;;;22.20;50.40;;;;;;6156456;28;83057;-71
2021/12/30 12:38:53;;;;;;;39.33;19.02;;;22.30;50.20;;;;;;6154898;28;83518;-71
2021/12/30 12:41:53;;;;;;;38.70;18.20;;;22.20;50.40;;;;;;6157006;28;83918;-72
2021/12/30 12:44:54;;;;;;;33.75;16.42;;;22.20;50.50;;;;;;6155852;28;83750;-73
2021/12/30 12:47:54;;;;;;;31.63;15.32;;;22.20;50.00;;;;;;6155037;28;83515;-70
2021/12/30 12:50:55;;;;;;;31.00;13.45;;;22.20;50.20;;;;;;6155655;28;83914;-69
2021/12/30 12:54:01;;;;;;;23.15;12.43;;;22.30;49.90;;;;;;6155201;28;84194;-69
2021/12/30 12:57:02;;;;;;;28.38;12.82;;;22.40;49.80;;;;;;6154117;28;82848;-70
2021/12/30 13:00:02;;;;;;;22.45;10.65;;;22.40;49.50;;;;;;6150602;28;83518;-73
2021/12/30 13:03:03;;;;;;;18.48;10.07;;;22.50;49.30;;;;;;6155401;28;83652;-72
2021/12/30 13:06:03;;;;;;;16.83;9.10;;;22.50;49.00;;;;;;6145513;28;83771;-74
2021/12/30 13:09:04;;;;;;;16.63;8.98;;;22.50;48.70;;;;;;6157071;28;81825;-74
2021/12/30 13:12:05;;;;;;;16.25;9.18;;;22.60;48.50;;;;;;6152783;28;80687;-70
2021/12/30 13:15:05;;;;;;;13.68;8.10;;;22.60;48.10;;;;;;6145871;28;80535;-72
2021/12/30 13:18:05;;;;;;;12.65;7.70;;;22.60;47.70;;;;;;6152502;28;80416;-73
2021/12/30 13:21:06;;;;;;;14.30;7.90;;;22.60;47.50;;;;;;6156845;28;80412;-73
2021/12/30 13:24:07;;;;;;;11.35;7.05;;;22.60;47.20;;;;;;6158829;28;80429;-71
2021/12/30 13:27:07;;;;;;;12.93;7.40;;;22.70;47.20;;;;;;6158496;28;80566;-73
2021/12/30 13:30:08;;;;;;;12.85;7.80;;;22.70;46.80;;;;;;6157718;28;81461;-71
2021/12/30 13:33:08;;;;;;;13.70;7.78;;;22.70;46.50;;;;;;6147952;28;80314;-70
2021/12/30 13:36:09;;;;;;;12.15;7.20;;;22.70;46.50;;;;;;6158157;28;80541;-69
2021/12/30 13:39:09;;;;;;;15.07;7.55;;;22.70;46.50;;;;;;6153246;28;80571;-69
2021/12/30 13:42:10;;;;;;;13.63;8.02;;;22.70;46.30;;;;;;6157847;28;80431;-68
2021/12/30 13:45:10;;;;;;;13.02;7.97;;;22.70;46.40;;;;;;6155669;28;80011;-67
2021/12/30 13:48:11;;;;;;;11.63;7.40;;;22.70;46.30;;;;;;6157558;28;80289;-67
2021/12/30 13:51:13;;;;;;;13.80;7.85;;;22.70;46.20;;;;;;6153751;28;81927;-68
2021/12/30 13:54:13;;;;;;;10.57;7.90;;;22.70;46.20;;;;;;6151855;28;80435;-68
2021/12/30 13:57:14;;;;;;;14.18;8.18;;;22.70;46.10;;;;;;6188037;28;83433;-70
2021/12/30 14:00:14;;;;;;;13.43;8.20;;;22.70;46.20;;;;;;6152906;28;82063;-69
2021/12/30 14:03:15;;;;;;;15.70;8.38;;;22.80;46.00;;;;;;6157402;28;80722;-67
2021/12/30 14:06:15;;;;;;;17.10;10.15;;;22.80;45.90;;;;;;6158053;28;80588;-70
2021/12/30 14:09:16;;;;;;;17.58;9.73;;;22.70;45.50;;;;;;6155398;28;83717;-70
2021/12/30 14:12:16;;;;;;;15.93;10.40;;;22.70;45.50;;;;;;6139933;28;85898;-70
2021/12/30 14:15:17;;;;;;;16.75;9.85;;;22.70;45.20;;;;;;6154481;28;82993;-70
2021/12/30 14:18:17;;;;;;;15.13;9.27;;;22.60;45.30;;;;;;6157166;28;83605;-69
2021/12/30 14:21:18;;;;;;;18.10;10.70;;;22.60;45.40;;;;;;6170568;28;80406;-70
2021/12/30 14:24:22;;;;;;;14.90;9.85;;;22.60;45.20;;;;;;6154440;28;82785;-69
2021/12/30 14:27:25;;;;;;;14.73;10.13;;;22.50;45.00;;;;;;6155375;28;86260;-70
2021/12/30 14:30:25;;;;;;;17.45;9.70;;;22.50;45.00;;;;;;6137634;28;83019;-69
2021/12/30 14:33:26;;;;;;;15.65;10.27;;;22.50;45.00;;;;;;6158298;28;84113;-68
2021/12/30 14:36:26;;;;;;;18.30;10.50;;;22.40;44.90;;;;;;6145626;28;83150;-70
2021/12/30 14:39:27;;;;;;;15.70;10.02;;;22.40;45.20;;;;;;6158967;28;84358;-69
2021/12/30 14:42:30;;;;;;;19.05;10.27;;;22.50;45.30;;;;;;6127941;28;86035;-70
2021/12/30 14:45:31;;;;;;;17.40;10.30;;;22.50;45.20;;;;;;6156583;28;84028;-70
2021/12/30 14:48:32;;;;;;;17.67;10.55;;;22.40;45.10;;;;;;6158410;28;83348;-71
2021/12/30 14:51:33;;;;;;;22.70;13.15;;;22.50;45.40;;;;;;6158424;28;89652;-70
2021/12/30 14:54:34;;;;;;;30.40;16.58;;;22.50;45.00;;;;;;6155501;28;86218;-69
2021/12/30 14:57:34;;;;;;;22.52;13.80;;;22.50;44.70;;;;;;6156576;28;84048;-70
2021/12/30 15:00:35;;;;;;;23.13;12.77;;;22.40;44.70;;;;;;6154742;28;83393;-70
2021/12/30 15:03:35;;;;;;;18.92;11.68;;;22.40;44.80;;;;;;6158696;28;83988;-70
2021/12/30 15:06:36;;;;;;;16.73;10.70;;;22.40;44.90;;;;;;6156711;28;84357;-69
2021/12/30 15:09:39;;;;;;;14.73;9.02;;;22.40;44.90;;;;;;6158513;28;83165;-71
2021/12/30 15:12:39;;;;;;;16.15;8.43;;;22.50;45.10;;;;;;6161547;28;82936;-71
2021/12/30 15:15:40;;;;;;;12.48;7.50;;;22.50;45.20;;;;;;6161491;28;80246;-71